Time;durP1;ratioP1;P1;durP2;ratioP2;P2;SDS_P1;SDS_P2;PMS_P1;PMS_P2;Temp;Humidity;BMP_temperature;BMP_pressure;BME280_temperature;BME280_humidity;BME280_pressure;Samples;Min_cycle;Max_cycle;Signal;HPM_P1;HPM_P2
2022/12/20 00:01:37;;;;;;;5.00;3.30;;;;;;;10.67;100.00;101212.91;2613021;36;20045;-59
2022/12/20 00:04:07;;;;;;;4.95;2.38;;;;;;;10.67;100.00;101202.16;2611960;36;20042;-60
2022/12/20 00:06:36;;;;;;;4.68;2.85;;;;;;;10.67;100.00;101199.47;2614097;36;20034;-62
2022/12/20 00:09:10;;;;;;;4.68;2.90;;;;;;;10.91;100.00;101187.59;2613726;36;20620;-60
2022/12/20 00:11:40;;;;;;;5.38;3.40;;;;;;;10.96;100.00;101188.09;2615258;31;20498;-62
2022/12/20 00:14:08;;;;;;;3.97;2.83;;;;;;;10.91;100.00;101183.09;2613998;36;20527;-61
2022/12/20 00:16:38;;;;;;;4.87;2.70;;;;;;;10.85;100.00;101175.50;2614104;36;20034;-62
2022/12/20 00:19:08;;;;;;;5.93;2.78;;;;;;;10.75;100.00;101172.75;2612940;36;20765;-61
2022/12/20 00:21:37;;;;;;;4.45;3.00;;;;;;;10.81;100.00;101172.25;2614547;36;20038;-62
2022/12/20 00:24:09;;;;;;;4.10;3.00;;;;;;;10.70;100.00;101172.28;2613978;36;20037;-60
2022/12/20 00:26:38;;;;;;;4.15;2.65;;;;;;;10.84;100.00;101158.50;2613855;36;20041;-60
2022/12/20 00:29:07;;;;;;;5.10;2.95;;;;;;;10.87;100.00;101181.63;2613660;36;20034;-61
2022/12/20 00:31:35;;;;;;;;;;;;;;;10.98;100.00;101161.84;2614319;36;20081;-61
2022/12/20 00:34:03;;;;;;;6.43;2.60;;;;;;;10.85;100.00;101167.44;2613892;31;19947;-62
2022/12/20 00:36:33;;;;;;;4.37;2.80;;;;;;;10.94;100.00;101165.78;2615187;31;20034;-61
2022/12/20 00:39:02;;;;;;;4.50;3.17;;;;;;;10.92;100.00;101165.09;2613563;36;20487;-58
2022/12/20 00:41:35;;;;;;;7.57;2.80;;;;;;;11.01;100.00;101167.84;2614579;36;20053;-63
2022/12/20 00:44:05;;;;;;;6.07;2.83;;;;;;;10.99;100.00;101164.41;2612808;36;20034;-59
2022/12/20 00:46:34;;;;;;;6.53;2.60;;;;;;;11.03;100.00;101155.09;2614181;36;20030;-63
2022/12/20 00:49:02;;;;;;;;;;;;;;;11.05;100.00;101158.50;2613660;36;20170;-63
2022/12/20 00:51:32;;;;;;;4.65;2.20;;;;;;;11.25;100.00;101164.03;2614717;36;19946;-61
2022/12/20 00:54:00;;;;;;;2.97;2.30;;;;;;;11.15;100.00;101158.56;2614502;36;20034;-59
2022/12/20 00:56:28;;;;;;;7.68;2.50;;;;;;;11.23;100.00;101160.59;2614671;36;21095;-60
2022/12/20 00:59:00;;;;;;;6.40;2.55;;;;;;;11.21;100.00;101160.72;2612866;36;20844;-62
2022/12/20 01:01:31;;;;;;;4.72;2.63;;;;;;;11.14;100.00;101146.09;2614241;36;20038;-63
2022/12/20 01:04:01;;;;;;;5.40;2.70;;;;;;;11.15;100.00;101142.41;2614414;36;20035;-61
2022/12/20 01:06:30;;;;;;;4.88;2.45;;;;;;;11.26;100.00;101159.47;2614815;36;20559;-61
2022/12/20 01:08:59;;;;;;;3.40;2.55;;;;;;;11.30;100.00;101177.09;2613765;36;20582;-61
2022/12/20 01:11:29;;;;;;;3.78;2.75;;;;;;;11.39;100.00;101165.50;2614072;36;20041;-63
2022/12/20 01:14:18;;;;;;;3.50;2.47;;;;;;;11.46;100.00;101166.69;2614879;36;20030;-61
2022/12/20 01:16:48;;;;;;;3.60;2.40;;;;;;;11.39;100.00;101157.44;2614026;36;20379;-60
2022/12/20 01:19:18;;;;;;;5.65;2.55;;;;;;;11.44;100.00;101165.97;2612723;36;20034;-63
2022/12/20 01:21:46;;;;;;;6.05;2.63;;;;;;;11.40;100.00;101153.75;2613816;36;20045;-60
2022/12/20 01:24:16;;;;;;;5.82;2.50;;;;;;;11.46;100.00;101171.22;2613893;31;20035;-62
2022/12/20 01:26:45;;;;;;;4.07;2.22;;;;;;;11.45;100.00;101164.97;2614126;36;20038;-61
2022/12/20 01:29:13;;;;;;;6.05;2.60;;;;;;;11.32;100.00;101165.22;2613363;36;20057;-59
2022/12/20 01:31:45;;;;;;;5.95;2.90;;;;;;;11.32;100.00;101162.50;2614509;31;20053;-60
2022/12/20 01:34:14;;;;;;;9.45;3.17;;;;;;;11.40;100.00;101167.22;2613711;36;20049;-60
2022/12/20 01:36:42;;;;;;;4.07;2.70;;;;;;;11.22;100.00;101159.75;2614658;31;20065;-59
2022/12/20 01:39:14;;;;;;;5.07;2.90;;;;;;;11.21;100.00;101151.81;2611945;36;20030;-59
2022/12/20 01:41:44;;;;;;;6.82;2.95;;;;;;;11.30;100.00;101152.84;2614604;36;20299;-59
2022/12/20 01:44:42;;;;;;;5.03;2.40;;;;;;;11.29;100.00;101152.00;2613928;31;20038;-60
2022/12/20 01:47:14;;;;;;;5.57;2.57;;;;;;;11.10;100.00;101144.66;2613647;36;20038;-60
2022/12/20 01:49:45;;;;;;;4.15;2.63;;;;;;;10.86;100.00;101147.59;2614639;36;20045;-58
2022/12/20 01:52:17;;;;;;;6.10;3.05;;;;;;;10.93;100.00;101153.34;2614478;36;20038;-60
2022/12/20 01:54:50;;;;;;;4.97;3.83;;;;;;;10.85;100.00;101162.91;2615500;36;20038;-59
2022/12/20 01:57:22;;;;;;;5.35;2.90;;;;;;;10.77;100.00;101153.78;2615942;36;20039;-60
2022/12/20 01:59:53;;;;;;;4.82;2.78;;;;;;;10.69;100.00;101159.81;2614121;36;20150;-58
2022/12/20 02:02:25;;;;;;;5.30;3.10;;;;;;;10.64;100.00;101145.88;2614318;36;20038;-59
2022/12/20 02:04:53;;;;;;;4.15;2.75;;;;;;;10.68;100.00;101163.50;2614914;31;20540;-61
2022/12/20 02:07:26;;;;;;;5.82;3.30;;;;;;;10.69;100.00;101151.75;2615813;36;20038;-59
2022/12/20 02:09:57;;;;;;;4.43;3.25;;;;;;;10.53;100.00;101141.41;2615218;36;20039;-58
2022/12/20 02:12:28;;;;;;;6.40;3.70;;;;;;;10.55;100.00;101133.22;2614984;36;20045;-59
2022/12/20 02:15:09;;;;;;;4.75;3.40;;;;;;;10.49;100.00;101130.03;2615315;36;20031;-61
2022/12/20 02:17:52;;;;;;;4.57;3.22;;;;;;;10.46;100.00;101135.69;2615400;36;20041;-59
2022/12/20 02:20:50;;;;;;;7.57;3.60;;;;;;;10.42;100.00;101134.22;2614676;36;20030;-59
2022/12/20 02:23:44;;;;;;;4.38;3.63;;;;;;;10.48;100.00;101131.03;2615496;36;20038;-59
2022/12/20 02:26:29;;;;;;;5.25;3.53;;;;;;;10.44;100.00;101126.91;2613360;36;20039;-59
2022/12/20 02:29:21;;;;;;;7.38;3.70;;;;;;;10.49;100.00;101130.03;2614979;36;20045;-59
2022/12/20 02:32:00;;;;;;;6.25;3.63;;;;;;;10.41;100.00;101126.28;2616156;36;20030;-59
2022/12/20 02:34:31;;;;;;;5.97;3.53;;;;;;;10.42;100.00;101112.69;2615501;36;20086;-60
2022/12/20 02:36:59;;;;;;;7.40;3.70;;;;;;;10.44;100.00;101099.13;2615704;36;20030;-61
2022/12/20 02:39:30;;;;;;;4.57;3.20;;;;;;;10.42;100.00;101096.56;2615452;36;20034;-60
2022/12/20 02:42:03;;;;;;;6.00;3.65;;;;;;;10.44;100.00;101102.66;2616272;31;20031;-59
2022/12/20 02:47:23;;;;;;;5.50;3.42;;;;;;;10.29;100.00;101109.28;2615527;36;20579;-60
2022/12/20 02:49:53;;;;;;;5.97;3.42;;;;;;;10.29;100.00;101103.91;2615331;36;20037;-61
2022/12/20 02:52:25;;;;;;;6.88;3.40;;;;;;;10.42;100.00;101106.47;2615779;31;20030;-60
2022/12/20 02:54:54;;;;;;;5.88;3.67;;;;;;;10.34;100.00;101093.66;2615621;36;20026;-59
2022/12/20 02:57:30;;;;;;;5.90;3.80;;;;;;;10.38;100.00;101103.19;2616068;36;20034;-60
2022/12/20 03:00:04;;;;;;;9.35;4.07;;;;;;;10.32;100.00;101098.28;2615566;36;20451;-61
2022/12/20 03:03:21;;;;;;;5.38;3.63;;;;;;;10.42;100.00;101098.41;2615825;36;20130;-60
2022/12/20 03:05:26;;;;;;;5.55;3.70;;;;;;;10.45;100.00;101104.38;2615288;36;20065;-60
2022/12/20 03:07:56;;;;;;;6.53;3.97;;;;;;;10.43;100.00;101103.66;2616152;36;20031;-59
2022/12/20 03:10:25;;;;;;;8.73;4.60;;;;;;;10.48;100.00;101090.69;2615059;36;20571;-61
2022/12/20 03:12:53;;;;;;;6.82;3.50;;;;;;;10.44;100.00;101086.53;2615992;36;20034;-58
2022/12/20 03:15:21;;;;;;;8.50;4.10;;;;;;;10.39;100.00;101088.75;2616049;36;20034;-60
2022/12/20 03:17:52;;;;;;;7.28;3.90;;;;;;;10.44;100.00;101091.91;2615666;36;20522;-59
2022/12/20 03:20:21;;;;;;;7.45;4.15;;;;;;;10.46;100.00;101086.41;2633607;36;20416;-60
2022/12/20 03:22:49;;;;;;;7.57;4.20;;;;;;;10.52;100.00;101086.72;2615069;36;20633;-60
2022/12/20 03:25:19;;;;;;;5.82;3.88;;;;;;;10.40;100.00;101082.38;2634401;36;20038;-60
2022/12/20 03:27:47;;;;;;;7.57;3.95;;;;;;;10.46;100.00;101081.00;2615741;36;20027;-59
2022/12/20 03:30:16;;;;;;;5.28;3.47;;;;;;;10.58;100.00;101090.72;2615454;36;20034;-61
2022/12/20 03:32:45;;;;;;;6.00;3.72;;;;;;;10.65;100.00;101101.84;2614233;36;20042;-57
2022/12/20 03:35:16;;;;;;;6.47;3.57;;;;;;;10.49;100.00;101089.66;2616563;36;20438;-60
2022/12/20 03:37:44;;;;;;;5.90;3.50;;;;;;;10.69;100.00;101081.75;2615842;36;20038;-59
2022/12/20 03:40:14;;;;;;;5.00;3.30;;;;;;;10.63;100.00;101096.59;2615782;36;20035;-59
2022/12/20 03:42:43;;;;;;;6.32;4.05;;;;;;;10.74;100.00;101075.97;2614140;36;20069;-59
2022/12/20 03:45:12;;;;;;;6.15;4.18;;;;;;;10.72;100.00;101083.31;2615995;36;20081;-58
2022/12/20 03:47:40;;;;;;;5.80;3.85;;;;;;;10.62;100.00;101085.94;2616094;36;20039;-58
2022/12/20 03:50:10;;;;;;;6.30;3.90;;;;;;;10.72;100.00;101086.00;2615912;36;20035;-59
2022/12/20 03:52:41;;;;;;;6.35;3.53;;;;;;;10.77;100.00;101079.25;2614831;36;22054;-60
2022/12/20 03:55:11;;;;;;;5.88;3.67;;;;;;;10.75;100.00;101070.44;2616021;36;20033;-61
2022/12/20 03:57:40;;;;;;;5.65;3.45;;;;;;;10.77;100.00;101063.09;2616467;36;20496;-62
2022/12/20 04:00:11;;;;;;;6.05;3.47;;;;;;;10.94;100.00;101063.47;2615229;36;20034;-60
2022/12/20 04:02:39;;;;;;;4.95;3.53;;;;;;;10.83;100.00;101067.94;2614385;36;20076;-61
2022/12/20 04:05:09;;;;;;;9.10;3.33;;;;;;;10.87;100.00;101058.59;2615946;36;20057;-59
2022/12/20 04:07:37;;;;;;;5.35;3.08;;;;;;;10.95;100.00;101065.16;2615970;36;20026;-59
2022/12/20 04:10:10;;;;;;;9.23;3.50;;;;;;;10.95;100.00;101055.25;2614990;36;20046;-60
2022/12/20 04:12:38;;;;;;;7.03;3.80;;;;;;;10.97;100.00;101060.53;2614879;31;20037;-61
2022/12/20 04:15:08;;;;;;;5.88;3.28;;;;;;;10.86;100.00;101046.16;2616118;36;20034;-60
2022/12/20 04:17:36;;;;;;;5.57;2.90;;;;;;;11.02;100.00;101040.25;2616170;36;20439;-60
2022/12/20 04:20:17;;;;;;;4.53;3.20;;;;;;;10.99;100.00;101043.22;2615252;36;20353;-60
2022/12/20 04:22:46;;;;;;;6.03;3.28;;;;;;;11.19;100.00;101051.41;2614816;36;20038;-60
2022/12/20 04:25:18;;;;;;;5.93;2.88;;;;;;;11.29;100.00;101041.53;2616282;36;20034;-60
2022/12/20 04:27:47;;;;;;;5.72;3.25;;;;;;;11.12;100.00;101040.31;2616071;36;20343;-60
2022/12/20 04:30:16;;;;;;;6.50;3.40;;;;;;;11.03;100.00;101030.34;2614648;36;20034;-59
2022/12/20 04:32:45;;;;;;;4.75;2.92;;;;;;;10.97;100.00;101022.81;2615438;36;20852;-59
2022/12/20 04:35:13;;;;;;;4.70;3.00;;;;;;;11.10;100.00;101036.91;2616000;36;20034;-60
2022/12/20 04:37:41;;;;;;;4.50;3.33;;;;;;;11.20;100.00;101027.03;2616169;36;20026;-59
2022/12/20 04:40:11;;;;;;;8.47;2.80;;;;;;;11.30;100.00;101034.28;2614767;36;20034;-59
2022/12/20 04:42:42;;;;;;;5.60;2.85;;;;;;;11.19;100.00;101028.00;2615403;36;20034;-61
2022/12/20 04:45:12;;;;;;;4.68;2.72;;;;;;;11.20;100.00;101032.41;2615998;36;20038;-60
2022/12/20 04:47:40;;;;;;;;;;;;;;;11.35;100.00;101035.59;2615897;36;20038;-60
2022/12/20 04:50:09;;;;;;;4.57;2.85;;;;;;;11.31;100.00;101028.75;2614976;36;19946;-60
2022/12/20 04:55:19;;;;;;;6.50;3.10;;;;;;;11.34;100.00;101038.41;2615808;36;20053;-60
2022/12/20 04:57:50;;;;;;;5.13;2.58;;;;;;;11.35;100.00;101034.72;2614925;36;20034;-61
2022/12/20 05:00:19;;;;;;;3.60;2.70;;;;;;;11.49;100.00;101031.63;2615629;36;20023;-61
2022/12/20 05:02:47;;;;;;;4.88;2.58;;;;;;;11.43;100.00;101021.41;2614556;36;20033;-59
2022/12/20 05:05:16;;;;;;;4.15;2.55;;;;;;;11.64;100.00;101023.16;2615863;36;20037;-61
2022/12/20 05:07:44;;;;;;;5.43;2.65;;;;;;;11.50;100.00;101017.19;2616160;36;20417;-61
2022/12/20 05:10:13;;;;;;;4.50;2.80;;;;;;;11.57;100.00;101018.34;2614823;36;20599;-60
2022/12/20 05:12:41;;;;;;;4.22;2.92;;;;;;;11.61;100.00;101018.06;2614893;36;20034;-61
2022/12/20 05:15:13;;;;;;;6.15;2.80;;;;;;;11.56;100.00;101016.63;2615929;36;20030;-61
2022/12/20 05:17:41;;;;;;;5.57;3.17;;;;;;;11.53;100.00;101011.50;2614982;36;20037;-60
2022/12/20 05:20:11;;;;;;;4.73;2.97;;;;;;;11.43;100.00;101024.09;2615570;31;20053;-60
2022/12/20 05:28:01;;;;;;;4.63;2.65;;;;;;;11.39;100.00;101020.84;2615074;36;20141;-60
2022/12/20 05:30:32;;;;;;;5.97;3.20;;;;;;;11.29;100.00;101013.72;2615278;36;20042;-60
2022/12/20 05:33:00;;;;;;;4.22;2.83;;;;;;;11.31;100.00;101012.59;2614787;36;20038;-59
2022/12/20 05:35:29;;;;;;;6.37;3.43;;;;;;;11.19;100.00;101009.16;2615860;36;20030;-59
2022/12/20 05:37:57;;;;;;;7.97;3.05;;;;;;;11.27;100.00;101010.31;2616321;36;20416;-60
2022/12/20 05:40:25;;;;;;;8.35;3.53;;;;;;;11.18;100.00;101015.50;2614863;36;20034;-59
2022/12/20 05:42:54;;;;;;;5.68;3.55;;;;;;;11.24;100.00;101022.19;2614764;36;20041;-59
2022/12/20 05:45:23;;;;;;;6.85;3.42;;;;;;;11.31;100.00;101011.75;2615273;36;20056;-60
2022/12/20 05:47:54;;;;;;;6.10;3.50;;;;;;;11.17;100.00;101005.75;2615695;36;20103;-61
2022/12/20 05:50:22;;;;;;;8.40;4.07;;;;;;;11.18;100.00;101006.59;2614247;36;20034;-60
2022/12/20 05:52:50;;;;;;;5.63;3.25;;;;;;;11.03;100.00;100993.50;2615667;36;20411;-60
2022/12/20 05:55:19;;;;;;;6.47;3.60;;;;;;;11.06;100.00;100992.38;2615064;36;20031;-60
2022/12/20 05:57:47;;;;;;;5.18;3.70;;;;;;;11.12;100.00;100986.44;2616074;36;20446;-60
2022/12/20 06:00:17;;;;;;;5.82;3.97;;;;;;;11.15;100.00;100970.00;2614248;36;20041;-60
2022/12/20 06:02:45;;;;;;;7.00;3.50;;;;;;;11.17;100.00;100968.03;2616377;36;20404;-60
2022/12/20 06:05:19;;;;;;;7.70;3.80;;;;;;;11.12;100.00;100966.75;2618285;36;20034;-60
2022/12/20 06:07:48;;;;;;;7.30;3.72;;;;;;;11.13;100.00;100966.59;2617540;36;20446;-60
2022/12/20 06:10:16;;;;;;;6.03;4.13;;;;;;;11.16;100.00;100966.31;2617361;36;20023;-60
2022/12/20 06:12:44;;;;;;;8.63;3.60;;;;;;;11.21;100.00;100964.06;2616803;36;20023;-60
2022/12/20 06:15:14;;;;;;;6.55;3.67;;;;;;;11.21;100.00;100964.06;2617444;36;20550;-59
2022/12/20 06:17:43;;;;;;;6.30;3.95;;;;;;;11.31;100.00;100953.31;2615316;36;20121;-61
2022/12/20 06:20:13;;;;;;;6.07;3.40;;;;;;;11.29;100.00;100951.72;2617046;36;20137;-61
2022/12/20 06:22:44;;;;;;;6.70;3.38;;;;;;;11.38;100.00;100946.38;2617066;36;20034;-59
2022/12/20 06:25:14;;;;;;;7.80;3.45;;;;;;;11.33;100.00;100951.31;2617458;36;20060;-59
2022/12/20 06:27:42;;;;;;;;;;;;;;;11.30;100.00;100940.81;2616246;36;20097;-59
2022/12/20 06:30:12;;;;;;;4.55;3.50;;;;;;;11.28;100.00;100947.31;2615860;36;19938;-60
2022/12/20 06:32:41;;;;;;;6.30;3.70;;;;;;;11.28;100.00;100955.41;2616726;36;20030;-60
2022/12/20 06:35:10;;;;;;;3.70;3.00;;;;;;;11.40;100.00;100962.41;2617076;36;20594;-61
2022/12/20 06:37:39;;;;;;;5.55;3.17;;;;;;;11.50;100.00;100984.00;2616541;36;20291;-60
2022/12/20 06:40:13;;;;;;;6.82;3.50;;;;;;;11.48;100.00;100992.19;2616387;36;20041;-59
2022/12/20 06:42:41;;;;;;;4.40;3.28;;;;;;;11.43;100.00;100975.59;2616818;36;20041;-60
2022/12/20 06:45:11;;;;;;;4.82;3.55;;;;;;;11.28;100.00;100974.28;2617019;36;20030;-61
2022/12/20 06:47:39;;;;;;;5.95;3.35;;;;;;;11.48;100.00;100973.31;2616900;31;20038;-60
2022/12/20 06:50:11;;;;;;;6.75;3.00;;;;;;;11.67;100.00;100963.56;2616363;31;20061;-59
2022/12/20 06:52:40;;;;;;;5.22;3.38;;;;;;;11.70;100.00;100958.75;2616857;36;20035;-60
2022/12/20 06:55:11;;;;;;;4.57;2.55;;;;;;;11.68;100.00;100957.19;2616677;36;20022;-60
2022/12/20 06:57:40;;;;;;;4.95;2.88;;;;;;;11.64;100.00;100953.06;2617097;36;20543;-59
2022/12/20 07:00:11;;;;;;;5.27;2.80;;;;;;;11.81;100.00;100956.91;2616055;36;20031;-59
2022/12/20 07:02:40;;;;;;;4.90;2.80;;;;;;;11.72;100.00;100945.97;2616013;31;20307;-59
2022/12/20 07:05:09;;;;;;;8.10;3.20;;;;;;;11.65;100.00;100944.84;2615951;36;20057;-59
2022/12/20 07:07:38;;;;;;;6.68;3.15;;;;;;;11.55;100.00;100942.13;2616569;36;20038;-60
2022/12/20 07:10:09;;;;;;;5.27;3.00;;;;;;;11.63;100.00;100956.75;2616910;31;20022;-60
2022/12/20 07:12:40;;;;;;;5.45;2.80;;;;;;;11.70;100.00;100949.81;2615888;36;20763;-60
2022/12/20 07:15:10;;;;;;;5.07;2.67;;;;;;;11.70;100.00;100947.09;2614999;36;20045;-60
2022/12/20 07:17:38;;;;;;;6.40;2.90;;;;;;;11.72;100.00;100945.13;2615316;36;20562;-60
2022/12/20 07:20:09;;;;;;;5.72;3.03;;;;;;;11.78;100.00;100947.25;2611983;36;20531;-61
2022/12/20 07:22:37;;;;;;;4.90;2.60;;;;;;;11.79;100.00;100946.25;2615224;36;20034;-60
2022/12/20 07:25:07;;;;;;;4.82;2.92;;;;;;;11.77;100.00;100944.72;2614240;31;20049;-61
2022/12/20 07:27:35;;;;;;;6.10;2.63;;;;;;;11.57;100.00;100950.94;2614124;36;20035;-60
2022/12/20 07:30:07;;;;;;;4.63;2.70;;;;;;;11.68;100.00;100960.72;2615084;36;20030;-59
2022/12/20 07:32:36;;;;;;;4.28;2.70;;;;;;;11.81;100.00;100952.38;2615145;36;20042;-61
2022/12/20 07:35:04;;;;;;;10.07;3.08;;;;;;;11.87;100.00;100940.16;2615808;36;20023;-59
2022/12/20 07:37:33;;;;;;;4.73;2.50;;;;;;;11.95;100.00;100950.25;2612189;36;20034;-61
2022/12/20 07:40:01;;;;;;;5.03;2.90;;;;;;;11.94;100.00;100960.22;2611146;31;20035;-61
2022/12/20 07:42:30;;;;;;;4.30;2.50;;;;;;;12.05;100.00;100945.72;2609128;36;20023;-59
2022/12/20 07:44:58;;;;;;;5.15;2.65;;;;;;;11.99;100.00;100962.47;2615307;36;20122;-61
2022/12/20 07:47:30;;;;;;;6.03;2.97;;;;;;;11.92;100.00;100941.44;2615847;31;20042;-60
2022/12/20 07:49:59;;;;;;;5.40;2.92;;;;;;;11.80;100.00;100942.56;2614936;36;20311;-59
2022/12/20 07:52:30;;;;;;;3.30;2.40;;;;;;;11.88;100.00;100949.94;2614761;36;20030;-60
2022/12/20 07:55:04;;;;;;;4.72;2.45;;;;;;;11.81;100.00;100941.59;2614242;36;20307;-61
2022/12/20 07:57:37;;;;;;;5.45;2.58;;;;;;;11.86;100.00;100947.38;2615987;36;20443;-60
2022/12/20 08:00:07;;;;;;;4.10;2.47;;;;;;;11.94;100.00;100964.75;2615984;36;20427;-62
2022/12/20 08:02:42;;;;;;;4.93;2.00;;;;;;;11.98;100.00;100955.38;2615988;36;20106;-59
2022/12/20 08:05:11;;;;;;;3.90;2.88;;;;;;;11.92;100.00;100951.38;2615570;36;20060;-59
2022/12/20 08:07:41;;;;;;;;;;;;;;;11.96;100.00;100963.59;2615076;36;20034;-60
2022/12/20 08:10:12;;;;;;;4.30;2.42;;;;;;;11.96;100.00;100962.75;2614733;36;20005;-60
2022/12/20 08:12:42;;;;;;;3.80;2.40;;;;;;;11.78;100.00;100971.53;2615029;36;20042;-59
2022/12/20 08:15:12;;;;;;;5.18;2.72;;;;;;;11.69;100.00;100966.97;2614554;36;20567;-59
2022/12/20 08:17:42;;;;;;;;;;;;;;;11.68;100.00;100966.13;2614982;36;20046;-59
2022/12/20 08:20:12;;;;;;;5.20;2.83;;;;;;;11.58;100.00;100965.25;2615780;36;19950;-60
2022/12/20 08:22:40;;;;;;;3.95;2.38;;;;;;;11.55;100.00;100966.38;2615104;31;20023;-60
2022/12/20 08:25:10;;;;;;;6.20;2.93;;;;;;;11.42;100.00;100963.09;2615462;36;20582;-59
2022/12/20 08:27:39;;;;;;;6.68;2.70;;;;;;;11.40;100.00;100962.41;2615164;36;20325;-59
2022/12/20 08:30:13;;;;;;;4.85;2.50;;;;;;;11.31;100.00;100952.47;2614954;36;20066;-59
2022/12/20 08:32:45;;;;;;;5.80;3.10;;;;;;;11.29;100.00;100962.50;2614643;36;20043;-59
2022/12/20 08:35:13;;;;;;;7.18;3.25;;;;;;;11.24;100.00;100971.00;2614680;36;20053;-60
2022/12/20 08:37:42;;;;;;;4.93;2.88;;;;;;;11.26;100.00;100954.72;2615054;36;20037;-60
2022/12/20 08:40:12;;;;;;;4.22;2.55;;;;;;;11.24;100.00;100971.00;2615649;36;20424;-61
2022/12/20 08:42:40;;;;;;;6.65;2.88;;;;;;;11.22;100.00;100956.84;2615782;36;20031;-61
2022/12/20 08:45:09;;;;;;;9.27;3.47;;;;;;;11.36;100.00;100963.66;2614336;36;20034;-61
2022/12/20 08:47:38;;;;;;;4.20;2.78;;;;;;;11.37;100.00;100963.53;2614281;36;20099;-61
2022/12/20 08:50:10;;;;;;;4.70;3.00;;;;;;;11.31;100.00;100964.09;2613548;31;20069;-60
2022/12/20 08:52:39;;;;;;;4.93;2.88;;;;;;;11.30;100.00;100962.38;2613539;36;20054;-60
2022/12/20 08:55:08;;;;;;;6.88;2.45;;;;;;;11.21;100.00;100964.06;2613005;36;20121;-61
2022/12/20 08:57:36;;;;;;;;;;;;;;;11.26;100.00;100955.56;2613944;36;20034;-60
2022/12/20 09:00:06;;;;;;;7.82;3.13;;;;;;;11.21;100.00;100966.75;2615386;36;19947;-59
2022/12/20 09:02:34;;;;;;;5.55;2.75;;;;;;;11.27;100.00;100953.72;2612225;36;20038;-61
2022/12/20 09:05:03;;;;;;;3.23;2.30;;;;;;;11.28;100.00;100963.50;2614629;36;20034;-60
2022/12/20 09:07:34;;;;;;;;;;;;;;;11.20;100.00;100950.72;2615575;31;20292;-60
2022/12/20 09:10:03;;;;;;;6.65;2.78;;;;;;;11.11;100.00;100957.78;2614585;36;20022;-61
2022/12/20 09:12:31;;;;;;;5.43;2.53;;;;;;;11.32;100.00;100948.75;2615254;36;20555;-61
2022/12/20 09:15:00;;;;;;;4.47;2.40;;;;;;;11.27;100.00;100956.41;2614874;36;20279;-60
2022/12/20 09:17:28;;;;;;;5.17;2.53;;;;;;;11.10;100.00;100953.41;2615303;36;20314;-58
2022/12/20 09:19:57;;;;;;;5.95;2.47;;;;;;;11.15;100.00;100961.91;2592888;36;20299;-60
2022/12/20 09:22:25;;;;;;;4.45;2.80;;;;;;;11.08;100.00;100963.44;2614530;36;20042;-61
2022/12/20 09:24:57;;;;;;;4.07;3.03;;;;;;;11.17;100.00;100968.03;2615339;36;20425;-60
2022/12/20 09:27:25;;;;;;;4.88;2.83;;;;;;;11.25;100.00;100971.84;2611556;36;20061;-62
2022/12/20 09:29:54;;;;;;;9.13;3.33;;;;;;;11.26;100.00;100963.63;2614458;36;20415;-63
2022/12/20 09:32:22;;;;;;;10.03;3.60;;;;;;;11.07;100.00;100967.16;2614860;36;20401;-60
2022/12/20 09:34:51;;;;;;;8.73;3.37;;;;;;;11.07;100.00;100972.53;2615503;36;20352;-62
2022/12/20 09:37:19;;;;;;;4.87;2.73;;;;;;;10.99;100.00;100972.34;2614020;31;20027;-60
2022/12/20 09:39:50;;;;;;;6.83;3.03;;;;;;;11.09;100.00;100975.94;2615265;36;20302;-60
2022/12/20 09:42:26;;;;;;;5.70;3.10;;;;;;;11.11;100.00;100963.16;2614390;36;20031;-60
2022/12/20 09:45:02;;;;;;;8.30;3.20;;;;;;;11.04;100.00;100962.00;2614342;36;20435;-60
2022/12/20 09:47:31;;;;;;;5.63;3.25;;;;;;;11.07;100.00;100963.59;2614270;36;20034;-60
2022/12/20 09:49:59;;;;;;;5.38;3.45;;;;;;;11.11;100.00;100956.94;2614557;36;20034;-60
2022/12/20 09:52:43;;;;;;;6.70;3.10;;;;;;;11.16;100.00;100963.63;2615109;36;20030;-62
2022/12/20 09:55:23;;;;;;;5.05;3.25;;;;;;;10.95;100.00;100960.13;2614539;36;20587;-60
2022/12/20 09:58:06;;;;;;;7.38;3.40;;;;;;;11.09;100.00;100965.16;2613343;36;20042;-60
2022/12/20 10:00:38;;;;;;;7.28;3.63;;;;;;;11.00;100.00;100958.75;2614355;36;20034;-59
2022/12/20 10:03:06;;;;;;;6.35;3.45;;;;;;;11.03;100.00;100966.56;2611981;36;20035;-61
2022/12/20 10:05:41;;;;;;;8.98;3.97;;;;;;;10.89;100.00;100968.78;2614407;36;20578;-60
2022/12/20 10:08:22;;;;;;;5.88;3.03;;;;;;;10.99;100.00;100969.66;2614891;36;20116;-61
2022/12/20 10:10:56;;;;;;;8.13;3.50;;;;;;;11.02;100.00;100977.47;2614230;36;20045;-60
2022/12/20 10:13:39;;;;;;;9.50;3.75;;;;;;;11.00;100.00;100974.91;2614025;31;20031;-60
2022/12/20 10:16:23;;;;;;;6.57;4.03;;;;;;;11.03;100.00;100965.72;2614268;36;20567;-59
2022/12/20 10:19:00;;;;;;;9.75;4.05;;;;;;;11.10;100.00;100966.88;2611385;36;20442;-60
2022/12/20 10:21:37;;;;;;;13.15;4.18;;;;;;;10.90;100.00;100962.41;2614282;36;20607;-60
2022/12/20 10:24:14;;;;;;;8.93;4.05;;;;;;;10.94;100.00;100963.81;2614998;36;20042;-61
2022/12/20 10:26:43;;;;;;;8.18;3.67;;;;;;;10.93;100.00;100960.28;2614263;36;20030;-60
2022/12/20 10:29:14;;;;;;;9.20;3.72;;;;;;;10.84;100.00;100971.88;2615176;36;20031;-63
2022/12/20 10:31:43;;;;;;;5.78;4.35;;;;;;;10.95;100.00;100960.13;2613906;36;20060;-60
2022/12/20 10:34:12;;;;;;;8.98;3.60;;;;;;;10.98;100.00;100962.56;2614556;36;20035;-60
2022/12/20 10:36:40;;;;;;;7.82;4.55;;;;;;;11.04;100.00;100962.00;2614261;31;20029;-61
2022/12/20 10:39:11;;;;;;;7.03;4.18;;;;;;;11.05;100.00;100953.78;2614140;36;20567;-60
2022/12/20 10:41:50;;;;;;;7.18;3.63;;;;;;;11.05;100.00;100958.34;2614737;36;20454;-60
2022/12/20 10:44:28;;;;;;;7.22;3.90;;;;;;;11.01;100.00;100951.50;2614468;36;20066;-61
2022/12/20 10:46:58;;;;;;;7.95;4.90;;;;;;;11.07;100.00;100942.91;2612371;36;20022;-61
2022/12/20 10:49:32;;;;;;;8.38;4.13;;;;;;;11.10;100.00;100948.03;2614837;36;20034;-60
2022/12/20 10:52:03;;;;;;;8.95;4.60;;;;;;;11.05;100.00;100942.19;2614741;36;20047;-63
2022/12/20 10:54:40;;;;;;;6.00;3.83;;;;;;;11.06;100.00;100933.13;2615994;36;20035;-63
2022/12/20 10:57:20;;;;;;;10.18;4.40;;;;;;;11.00;100.00;100933.66;2615071;36;20034;-61
2022/12/20 10:59:55;;;;;;;8.63;4.53;;;;;;;11.07;100.00;100934.81;2615820;36;20038;-62
2022/12/20 11:02:31;;;;;;;7.50;4.15;;;;;;;10.95;100.00;100919.75;2616293;36;20450;-61
2022/12/20 11:05:02;;;;;;;8.85;4.03;;;;;;;11.13;100.00;100920.81;2613478;36;20034;-62
2022/12/20 11:07:34;;;;;;;6.95;4.43;;;;;;;11.11;100.00;100928.16;2615714;36;20042;-60
2022/12/20 11:10:05;;;;;;;9.80;5.00;;;;;;;11.12;100.00;100920.94;2615774;36;20018;-61
2022/12/20 11:12:34;;;;;;;9.02;4.80;;;;;;;11.04;100.00;100914.41;2615422;31;20571;-61
2022/12/20 11:15:25;;;;;;;7.47;4.70;;;;;;;11.17;100.00;100922.25;2615408;36;20030;-59
2022/12/20 11:17:59;;;;;;;7.82;4.70;;;;;;;11.12;100.00;100919.09;2615786;36;20061;-59
2022/12/20 11:20:36;;;;;;;9.07;4.53;;;;;;;11.05;100.00;100916.09;2607354;36;20085;-59
2022/12/20 11:23:20;;;;;;;10.63;4.70;;;;;;;11.24;100.00;100908.19;2615925;36;20031;-59
2022/12/20 11:26:05;;;;;;;5.78;4.28;;;;;;;11.27;100.00;100913.31;2614972;36;20034;-60
2022/12/20 11:28:57;;;;;;;8.95;4.88;;;;;;;11.33;100.00;100910.06;2615503;36;20030;-59
2022/12/20 11:31:45;;;;;;;7.57;5.05;;;;;;;11.17;100.00;100913.28;2615668;36;20438;-60
2022/12/20 11:34:25;;;;;;;10.50;4.65;;;;;;;11.09;100.00;100916.69;2615303;36;20038;-60
2022/12/20 11:37:20;;;;;;;11.35;4.78;;;;;;;11.20;100.00;100916.56;2615508;36;20031;-61
2022/12/20 11:40:08;;;;;;;7.10;4.50;;;;;;;11.11;100.00;100920.06;2615146;36;20045;-61
2022/12/20 11:42:50;;;;;;;9.40;4.47;;;;;;;11.11;100.00;100919.22;2614721;36;20056;-60
2022/12/20 11:45:26;;;;;;;8.18;5.60;;;;;;;11.18;100.00;100910.44;2614974;31;20409;-60
2022/12/20 11:48:11;;;;;;;6.28;4.82;;;;;;;11.11;100.00;100909.28;2615607;36;20041;-62
2022/12/20 11:51:03;;;;;;;7.68;5.28;;;;;;;11.17;100.00;100903.38;2615131;31;20042;-58